Time;durP1;ratioP1;P1;durP2;ratioP2;P2;SDS_P1;SDS_P2;PMS_P1;PMS_P2;Temp;Humidity;BMP_temperature;BMP_pressure;BME280_temperature;BME280_humidity;BME280_pressure;Samples;Min_cycle;Max_cycle;Signal;HPM_P1;HPM_P2
2021/09/25 00:00:33;;;;;;;;;;;17.50;99.90;;;;;;1943677;72;20441;-71
2021/09/25 00:03:01;;;;;;;;;;;17.50;99.90;;;;;;1942199;72;20146;-71
2021/09/25 00:05:28;;;;;;;;;;;17.50;99.90;;;;;;1946363;72;20210;-71
2021/09/25 00:07:55;;;;;;;;;;;17.50;99.90;;;;;;1942982;72;20151;-72
2021/09/25 00:10:23;;;;;;;;;;;17.50;99.90;;;;;;1944277;72;20178;-71
2021/09/25 00:12:50;;;;;;;;;;;17.50;99.90;;;;;;1946614;72;20133;-71
2021/09/25 00:15:17;;;;;;;;;;;17.50;99.90;;;;;;1947418;72;20330;-71
2021/09/25 00:17:45;;;;;;;;;;;17.50;99.90;;;;;;1944834;72;20120;-71
2021/09/25 00:20:12;;;;;;;;;;;17.50;99.90;;;;;;1946332;72;20208;-71
2021/09/25 00:22:39;;;;;;;;;;;17.50;99.90;;;;;;1943962;72;20164;-71
2021/09/25 00:25:06;;;;;;;;;;;17.50;99.90;;;;;;1944247;72;20119;-71
2021/09/25 00:27:33;;;;;;;;;;;17.50;99.90;;;;;;1944750;72;20206;-71
2021/09/25 00:30:00;;;;;;;;;;;17.50;99.90;;;;;;1943021;72;20120;-71
2021/09/25 00:32:27;;;;;;;;;;;17.50;99.90;;;;;;1940009;72;20192;-71
2021/09/25 00:34:53;;;;;;;;;;;17.40;99.90;;;;;;1945796;71;20560;-71
2021/09/25 00:37:20;;;;;;;;;;;17.50;99.90;;;;;;1944838;72;20124;-71
2021/09/25 00:39:47;;;;;;;;;;;17.40;99.90;;;;;;1940953;72;20183;-71
2021/09/25 00:42:14;;;;;;;;;;;17.40;99.90;;;;;;1945654;72;20152;-71
2021/09/25 00:44:41;;;;;;;;;;;17.50;99.90;;;;;;1949021;72;20109;-71
2021/09/25 00:47:07;;;;;;;;;;;17.40;99.90;;;;;;1943365;72;20195;-71
2021/09/25 00:49:34;;;;;;;;;;;17.40;99.90;;;;;;1942935;72;20159;-71
2021/09/25 00:52:01;;;;;;;;;;;17.40;99.90;;;;;;1941471;72;20458;-71
2021/09/25 00:54:28;;;;;;;;;;;17.40;99.90;;;;;;1944543;72;20187;-71
2021/09/25 00:56:56;;;;;;;;;;;17.30;99.90;;;;;;1942558;72;20142;-70
2021/09/25 00:59:23;;;;;;;;;;;17.30;99.90;;;;;;1946228;72;20167;-71
2021/09/25 01:01:50;;;;;;;;;;;17.30;99.90;;;;;;1943574;73;20195;-71
2021/09/25 01:04:16;;;;;;;;;;;17.30;99.90;;;;;;1944163;72;20417;-72
2021/09/25 01:06:43;;;;;;;;;;;17.30;99.90;;;;;;1944169;72;20147;-71
2021/09/25 01:09:10;;;;;;;;;;;17.30;99.90;;;;;;1944115;72;20511;-70
2021/09/25 01:11:37;;;;;;;;;;;17.30;99.90;;;;;;1945246;72;20124;-71
2021/09/25 01:14:04;;;;;;;;;;;17.30;99.90;;;;;;1946107;72;20182;-70
2021/09/25 01:16:31;;;;;;;;;;;17.30;99.90;;;;;;1943667;72;20129;-70
2021/09/25 01:18:58;;;;;;;;;;;17.30;99.90;;;;;;1946378;72;20191;-70
2021/09/25 01:21:25;;;;;;;;;;;17.30;99.90;;;;;;1945825;72;20900;-70
2021/09/25 01:23:51;;;;;;;;;;;17.20;99.90;;;;;;1941457;72;20306;-70
2021/09/25 01:26:20;;;;;;;;;;;17.20;99.90;;;;;;1939590;72;20202;-71
2021/09/25 01:28:48;;;;;;;;;;;17.20;99.90;;;;;;1946265;72;20209;-70
2021/09/25 01:31:15;;;;;;;;;;;17.20;99.90;;;;;;1944986;72;20187;-71
2021/09/25 01:33:43;;;;;;;;;;;17.10;99.90;;;;;;1940639;72;20167;-70
2021/09/25 01:36:11;;;;;;;;;;;17.20;99.90;;;;;;1941289;72;20512;-70
2021/09/25 01:38:38;;;;;;;;;;;17.10;99.90;;;;;;1942597;72;20507;-70
2021/09/25 01:41:05;;;;;;;;;;;17.10;99.90;;;;;;1942824;72;20472;-70
2021/09/25 01:43:32;;;;;;;;;;;17.10;99.90;;;;;;1941236;72;20195;-70
2021/09/25 01:45:59;;;;;;;;;;;17.10;99.90;;;;;;1944710;72;20175;-70
2021/09/25 01:48:26;;;;;;;;;;;17.20;99.90;;;;;;1943964;72;20401;-70
2021/09/25 01:50:53;;;;;;;;;;;17.10;99.90;;;;;;1945232;72;20198;-70
2021/09/25 01:53:21;;;;;;;;;;;17.10;99.90;;;;;;1945598;72;20135;-70
2021/09/25 01:55:49;;;;;;;;;;;17.10;99.90;;;;;;1945097;72;20123;-70
2021/09/25 01:58:17;;;;;;;;;;;17.00;99.90;;;;;;1944660;72;20105;-70
2021/09/25 02:00:43;;;;;;;;;;;17.10;99.90;;;;;;1943730;72;20172;-70
2021/09/25 02:03:12;;;;;;;;;;;17.10;99.90;;;;;;1944186;72;20662;-70
2021/09/25 02:05:39;;;;;;;;;;;17.10;99.90;;;;;;1945392;72;20178;-70
2021/09/25 02:08:05;;;;;;;;;;;17.10;99.90;;;;;;1948287;72;20213;-70
2021/09/25 02:10:33;;;;;;;;;;;17.10;99.90;;;;;;1943475;72;20218;-71
2021/09/25 02:13:00;;;;;;;;;;;17.10;99.90;;;;;;1944605;72;20159;-70
2021/09/25 02:15:26;;;;;;;;;;;17.10;99.90;;;;;;1946120;73;20218;-70
2021/09/25 02:17:53;;;;;;;;;;;17.10;99.90;;;;;;1945082;72;20238;-70
2021/09/25 02:20:21;;;;;;;;;;;17.10;99.90;;;;;;1945329;73;20108;-70
2021/09/25 02:22:48;;;;;;;;;;;17.10;99.90;;;;;;1944655;72;20369;-71
2021/09/25 02:25:15;;;;;;;;;;;17.00;99.90;;;;;;1944337;72;20167;-70
2021/09/25 02:27:42;;;;;;;;;;;17.00;99.90;;;;;;1945038;72;20182;-70
2021/09/25 02:30:10;;;;;;;;;;;17.00;99.90;;;;;;1943896;72;20120;-71
2021/09/25 02:32:37;;;;;;;;;;;17.10;99.90;;;;;;1871894;75;20116;-70
2021/09/25 02:35:04;;;;;;;;;;;17.00;99.90;;;;;;1874025;75;20218;-70
2021/09/25 02:37:31;;;;;;;;;;;17.00;99.90;;;;;;1852798;76;20196;-70
2021/09/25 02:39:58;;;;;;;;;;;17.00;99.90;;;;;;1943702;72;20194;-71
2021/09/25 02:42:25;;;;;;;;;;;17.00;99.90;;;;;;1940291;72;20112;-71
2021/09/25 02:44:51;;;;;;;;;;;17.00;99.90;;;;;;1946007;72;20213;-71
2021/09/25 02:47:18;;;;;;;;;;;17.00;99.90;;;;;;1945592;72;20172;-70
2021/09/25 02:49:45;;;;;;;;;;;17.00;99.90;;;;;;1944163;72;20417;-70
2021/09/25 02:52:12;;;;;;;;;;;16.90;99.90;;;;;;1945700;72;20175;-70
2021/09/25 02:54:39;;;;;;;;;;;16.80;99.90;;;;;;1942002;72;20428;-70
2021/09/25 02:57:06;;;;;;;;;;;16.80;99.90;;;;;;1941635;72;20214;-70
2021/09/25 02:59:32;;;;;;;;;;;16.90;99.90;;;;;;1945233;72;20224;-71
2021/09/25 03:01:59;;;;;;;;;;;16.90;99.90;;;;;;1946177;72;20128;-70
2021/09/25 03:04:26;;;;;;;;;;;16.90;99.90;;;;;;1943709;72;20206;-71
2021/09/25 03:06:53;;;;;;;;;;;17.00;99.90;;;;;;1945988;72;20684;-70
2021/09/25 03:09:22;;;;;;;;;;;16.90;99.90;;;;;;1943932;73;20127;-70
2021/09/25 03:11:48;;;;;;;;;;;16.90;99.90;;;;;;1947146;72;20203;-70
2021/09/25 03:14:15;;;;;;;;;;;17.00;99.90;;;;;;1940196;72;20219;-71
2021/09/25 03:16:42;;;;;;;;;;;17.00;99.90;;;;;;1946164;72;20171;-70
2021/09/25 03:19:09;;;;;;;;;;;16.90;99.90;;;;;;1938479;72;20185;-71
2021/09/25 03:21:36;;;;;;;;;;;17.00;99.90;;;;;;1943883;72;20154;-70
2021/09/25 03:24:03;;;;;;;;;;;17.00;99.90;;;;;;1945771;72;20171;-70
2021/09/25 03:26:29;;;;;;;;;;;16.90;99.90;;;;;;1945349;72;20438;-70
2021/09/25 03:28:56;;;;;;;;;;;16.90;99.90;;;;;;1945690;72;20151;-70
2021/09/25 03:31:23;;;;;;;;;;;16.90;99.90;;;;;;1945503;72;20413;-70
2021/09/25 03:33:50;;;;;;;;;;;16.90;99.90;;;;;;1943691;72;20202;-70
2021/09/25 03:36:17;;;;;;;;;;;16.90;99.90;;;;;;1945498;72;20233;-71
2021/09/25 03:38:43;;;;;;;;;;;17.00;99.90;;;;;;1944196;72;20205;-71
2021/09/25 03:41:10;;;;;;;;;;;17.00;99.90;;;;;;1945972;72;20127;-71
2021/09/25 03:43:37;;;;;;;;;;;17.00;99.90;;;;;;1946209;72;20202;-70
2021/09/25 03:46:04;;;;;;;;;;;17.00;99.90;;;;;;1944431;72;20120;-71
2021/09/25 03:48:31;;;;;;;;;;;17.00;99.90;;;;;;1942076;72;20497;-70
2021/09/25 03:50:58;;;;;;;;;;;17.00;99.90;;;;;;1944956;72;20211;-70
2021/09/25 03:53:25;;;;;;;;;;;17.00;99.90;;;;;;1946554;72;20179;-70
2021/09/25 03:55:52;;;;;;;;;;;17.00;99.90;;;;;;1946172;72;20214;-70
2021/09/25 03:58:19;;;;;;;;;;;17.00;99.90;;;;;;1939186;72;21286;-70
2021/09/25 04:00:46;;;;;;;;;;;17.00;99.90;;;;;;1943956;72;20175;-70
2021/09/25 04:03:13;;;;;;;;;;;17.00;99.90;;;;;;1943675;72;20424;-70
2021/09/25 04:05:40;;;;;;;;;;;17.00;99.90;;;;;;1945795;73;20433;-71
2021/09/25 04:08:07;;;;;;;;;;;17.00;99.90;;;;;;1945971;72;20132;-71
2021/09/25 04:10:34;;;;;;;;;;;17.00;99.90;;;;;;1944619;72;20205;-70
2021/09/25 04:13:01;;;;;;;;;;;17.00;99.90;;;;;;1943841;72;20644;-70
2021/09/25 04:15:28;;;;;;;;;;;17.00;99.90;;;;;;1946635;72;20216;-71
2021/09/25 04:17:55;;;;;;;;;;;17.00;99.90;;;;;;1940862;72;20120;-71
2021/09/25 04:20:21;;;;;;;;;;;17.00;99.90;;;;;;1945533;72;20172;-70
2021/09/25 04:22:48;;;;;;;;;;;17.00;99.90;;;;;;1945009;72;20480;-70
2021/09/25 04:25:15;;;;;;;;;;;16.90;99.90;;;;;;1946168;72;20146;-70
2021/09/25 04:27:42;;;;;;;;;;;17.00;99.90;;;;;;1941499;72;20268;-70
2021/09/25 04:30:09;;;;;;;;;;;17.00;99.90;;;;;;1945892;72;20251;-71
2021/09/25 04:32:36;;;;;;;;;;;17.00;99.90;;;;;;1941347;72;20163;-70
2021/09/25 04:35:03;;;;;;;;;;;17.00;99.90;;;;;;1942347;72;20183;-70
2021/09/25 04:37:30;;;;;;;;;;;17.00;99.90;;;;;;1944844;72;20167;-70
2021/09/25 04:39:56;;;;;;;;;;;17.00;99.90;;;;;;1943437;72;20208;-70
2021/09/25 04:42:23;;;;;;;;;;;17.00;99.90;;;;;;1944429;72;20206;-71
2021/09/25 04:44:50;;;;;;;;;;;17.00;99.90;;;;;;1946434;72;20171;-70
2021/09/25 04:47:17;;;;;;;;;;;17.00;99.90;;;;;;1940878;72;20425;-71
2021/09/25 04:49:44;;;;;;;;;;;17.00;99.90;;;;;;1941426;72;20214;-71
2021/09/25 04:52:10;;;;;;;;;;;17.10;99.90;;;;;;1942532;72;20164;-71
2021/09/25 04:54:37;;;;;;;;;;;17.00;99.90;;;;;;1945871;72;20382;-71
2021/09/25 04:57:04;;;;;;;;;;;17.00;99.90;;;;;;1941390;72;20202;-71
2021/09/25 04:59:31;;;;;;;;;;;17.10;99.90;;;;;;1941024;72;20248;-71
2021/09/25 05:01:58;;;;;;;;;;;17.00;99.90;;;;;;1945085;72;20132;-71
2021/09/25 05:04:25;;;;;;;;;;;17.10;99.90;;;;;;1946359;72;20187;-70
2021/09/25 05:06:51;;;;;;;;;;;17.10;99.90;;;;;;1942473;72;20131;-71
2021/09/25 05:09:19;;;;;;;;;;;17.00;99.90;;;;;;1947975;72;20146;-70
2021/09/25 05:11:46;;;;;;;;;;;17.00;99.90;;;;;;1945902;72;20263;-70
2021/09/25 05:14:13;;;;;;;;;;;17.00;99.90;;;;;;1945930;72;20187;-70
2021/09/25 05:16:39;;;;;;;;;;;17.00;99.90;;;;;;1940690;72;20148;-70
2021/09/25 05:19:06;;;;;;;;;;;17.00;99.90;;;;;;1943683;72;20399;-70
2021/09/25 05:21:33;;;;;;;;;;;17.00;99.90;;;;;;1946356;72;20155;-70
2021/09/25 05:24:01;;;;;;;;;;;17.00;99.90;;;;;;1939943;72;20516;-71
2021/09/25 05:26:28;;;;;;;;;;;16.90;99.90;;;;;;1945849;72;20152;-70
2021/09/25 05:28:55;;;;;;;;;;;16.90;99.90;;;;;;1945779;72;20517;-70
2021/09/25 05:31:21;;;;;;;;;;;16.80;99.90;;;;;;1944849;72;20259;-70
2021/09/25 05:33:48;;;;;;;;;;;16.90;99.90;;;;;;1946120;72;20410;-70
2021/09/25 05:36:15;;;;;;;;;;;16.80;99.90;;;;;;1939268;72;20183;-70
2021/09/25 05:38:42;;;;;;;;;;;16.90;99.90;;;;;;1941921;72;20492;-70
2021/09/25 05:41:09;;;;;;;;;;;16.90;99.90;;;;;;1947955;72;20789;-70
2021/09/25 05:43:36;;;;;;;;;;;16.90;99.90;;;;;;1946146;72;20163;-70
2021/09/25 05:46:02;;;;;;;;;;;16.90;99.90;;;;;;1945861;72;20405;-71
2021/09/25 05:48:30;;;;;;;;;;;16.90;99.90;;;;;;1944302;72;20195;-70
2021/09/25 05:50:57;;;;;;;;;;;16.90;99.90;;;;;;1941998;72;20167;-70
2021/09/25 05:53:24;;;;;;;;;;;16.90;99.90;;;;;;1850884;76;20205;-70
2021/09/25 05:55:51;;;;;;;;;;;16.90;99.90;;;;;;1942891;72;20218;-70
2021/09/25 05:58:17;;;;;;;;;;;16.90;99.90;;;;;;1939151;72;20221;-70
2021/09/25 06:00:44;;;;;;;;;;;16.90;99.90;;;;;;1943870;72;20186;-70
2021/09/25 06:03:11;;;;;;;;;;;16.90;99.90;;;;;;1940036;72;20104;-70
2021/09/25 06:05:38;;;;;;;;;;;16.90;99.90;;;;;;1938536;72;20159;-70
2021/09/25 06:08:05;;;;;;;;;;;16.90;99.90;;;;;;1945672;72;20124;-70
2021/09/25 06:10:31;;;;;;;;;;;17.00;99.90;;;;;;1946057;73;20248;-70
2021/09/25 06:12:58;;;;;;;;;;;17.00;99.90;;;;;;1944292;72;20218;-70
2021/09/25 06:15:25;;;;;;;;;;;17.00;99.90;;;;;;1944480;72;20154;-70
2021/09/25 06:17:52;;;;;;;;;;;17.00;99.90;;;;;;1944875;72;20174;-70
2021/09/25 06:20:19;;;;;;;;;;;17.00;99.90;;;;;;1946219;72;20171;-70
2021/09/25 06:22:46;;;;;;;;;;;17.00;99.90;;;;;;1946917;72;20113;-70
2021/09/25 06:25:13;;;;;;;;;;;17.00;99.90;;;;;;1945193;72;20171;-70
2021/09/25 06:27:39;;;;;;;;;;;17.10;99.90;;;;;;1945597;72;20120;-71
2021/09/25 06:30:07;;;;;;;;;;;17.00;99.90;;;;;;1945596;72;20174;-71
2021/09/25 06:32:34;;;;;;;;;;;17.00;99.90;;;;;;1945599;72;20253;-71
2021/09/25 06:35:01;;;;;;;;;;;17.00;99.90;;;;;;1945597;72;20175;-71
2021/09/25 06:37:29;;;;;;;;;;;17.00;99.90;;;;;;1945128;72;20148;-71
2021/09/25 06:39:56;;;;;;;;;;;17.00;99.90;;;;;;1943398;72;20183;-70
2021/09/25 06:42:23;;;;;;;;;;;17.00;99.90;;;;;;1943427;72;20170;-71
2021/09/25 06:44:50;;;;;;;;;;;17.00;99.90;;;;;;1944232;72;20210;-71
2021/09/25 06:47:17;;;;;;;;;;;17.10;99.90;;;;;;1942991;72;20168;-72
2021/09/25 06:49:44;;;;;;;;;;;17.10;99.90;;;;;;1945344;72;20167;-70
2021/09/25 06:52:11;;;;;;;;;;;17.10;99.90;;;;;;1946483;72;20209;-70
2021/09/25 06:54:38;;;;;;;;;;;17.10;99.90;;;;;;1944973;72;20231;-70
2021/09/25 06:57:06;;;;;;;;;;;17.10;99.90;;;;;;1944226;72;20152;-70
2021/09/25 06:59:33;;;;;;;;;;;17.10;99.90;;;;;;1940819;72;20232;-70
2021/09/25 07:02:01;;;;;;;;;;;17.10;99.90;;;;;;1950393;72;20116;-70
2021/09/25 07:04:28;;;;;;;;;;;17.20;99.90;;;;;;1944032;72;20163;-69
2021/09/25 07:06:54;;;;;;;;;;;17.20;99.90;;;;;;1943902;72;20440;-70
2021/09/25 07:09:21;;;;;;;;;;;17.20;99.90;;;;;;1947482;72;20152;-69
2021/09/25 07:11:48;;;;;;;;;;;17.30;99.90;;;;;;1946813;72;20403;-70
2021/09/25 07:14:15;;;;;;;;;;;17.30;99.90;;;;;;1944524;72;20207;-73
2021/09/25 07:16:42;;;;;;;;;;;17.30;99.90;;;;;;1945528;72;20179;-72
2021/09/25 07:19:09;;;;;;;;;;;17.30;99.90;;;;;;1943212;72;20219;-72
2021/09/25 07:21:36;;;;;;;;;;;17.30;99.90;;;;;;1946086;72;20128;-73
2021/09/25 07:24:03;;;;;;;;;;;17.30;99.90;;;;;;1944464;72;20222;-71
2021/09/25 07:26:30;;;;;;;;;;;17.30;99.90;;;;;;1943860;72;20238;-71
2021/09/25 07:28:57;;;;;;;;;;;17.40;99.90;;;;;;1944440;72;20127;-71
2021/09/25 07:31:24;;;;;;;;;;;17.40;99.90;;;;;;1942675;72;20215;-73
2021/09/25 07:33:50;;;;;;;;;;;17.50;99.90;;;;;;1945158;72;20120;-72
2021/09/25 07:36:17;;;;;;;;;;;17.50;99.90;;;;;;1944993;72;20491;-71
2021/09/25 07:38:44;;;;;;;;;;;17.60;99.90;;;;;;1943489;72;20179;-72
2021/09/25 07:41:11;;;;;;;;;;;17.50;99.90;;;;;;1946312;72;20457;-73
2021/09/25 07:43:38;;;;;;;;;;;17.60;99.90;;;;;;1940560;72;20181;-71
2021/09/25 07:46:04;;;;;;;;;;;17.60;99.90;;;;;;1939544;72;20512;-72
2021/09/25 07:48:31;;;;;;;;;;;17.60;99.90;;;;;;1944949;72;20221;-73
2021/09/25 07:50:58;;;;;;;;;;;17.60;99.90;;;;;;1944180;72;20458;-73
2021/09/25 07:53:25;;;;;;;;;;;17.60;99.90;;;;;;1943827;72;20201;-72
2021/09/25 07:55:52;;;;;;;;;;;17.70;99.90;;;;;;1947687;72;20123;-73
2021/09/25 07:58:18;;;;;;;;;;;17.70;99.90;;;;;;1945411;72;20202;-73
2021/09/25 08:00:45;;;;;;;;;;;17.70;99.90;;;;;;1946692;72;20147;-72
2021/09/25 08:03:12;;;;;;;;;;;17.70;99.90;;;;;;1942830;72;20203;-73
2021/09/25 08:05:39;;;;;;;;;;;17.80;99.90;;;;;;1943857;72;20207;-74
2021/09/25 08:08:06;;;;;;;;;;;17.80;99.90;;;;;;1946819;72;20156;-73
2021/09/25 08:10:33;;;;;;;;;;;17.90;99.90;;;;;;1946505;72;20180;-73
2021/09/25 08:13:00;;;;;;;;;;;17.90;99.90;;;;;;1947218;72;20162;-75
2021/09/25 08:15:26;;;;;;;;;;;17.90;99.90;;;;;;1944505;72;20214;-75
2021/09/25 08:17:53;;;;;;;;;;;17.90;99.90;;;;;;1944494;73;20208;-74
2021/09/25 08:20:21;;;;;;;;;;;18.00;99.90;;;;;;1945948;72;20123;-76
2021/09/25 08:22:48;;;;;;;;;;;18.00;99.90;;;;;;1945850;72;20307;-77
2021/09/25 08:25:15;;;;;;;;;;;18.00;99.90;;;;;;1944529;72;20476;-72
2021/09/25 08:27:42;;;;;;;;;;;18.00;99.90;;;;;;1945307;72;20197;-72
2021/09/25 08:30:11;;;;;;;;;;;18.10;99.90;;;;;;1940758;72;20258;-73
2021/09/25 08:32:38;;;;;;;;;;;18.10;99.90;;;;;;1944325;72;20318;-73
2021/09/25 08:35:07;;;;;;;;;;;18.10;99.90;;;;;;1943215;72;20217;-73
2021/09/25 08:37:37;;;;;;;;;;;18.10;99.90;;;;;;1944572;72;20155;-72
2021/09/25 08:40:05;;;;;;;;;;;18.20;99.90;;;;;;1945954;72;20163;-72
2021/09/25 08:42:33;;;;;;;;;;;18.20;99.90;;;;;;1944591;72;20221;-73
2021/09/25 08:44:59;;;;;;;;;;;18.20;99.90;;;;;;1946071;72;20174;-73
2021/09/25 08:47:26;;;;;;;;;;;18.20;99.90;;;;;;1943188;72;20176;-72
2021/09/25 08:49:53;;;;;;;;;;;18.20;99.90;;;;;;1943001;72;20202;-73
2021/09/25 08:52:20;;;;;;;;;;;18.20;99.90;;;;;;1943662;72;20232;-73
2021/09/25 08:54:47;;;;;;;;;;;18.30;99.90;;;;;;1940205;72;20328;-73
2021/09/25 08:57:14;;;;;;;;;;;18.30;99.90;;;;;;1944215;72;20474;-72
2021/09/25 08:59:40;;;;;;;;;;;18.40;99.90;;;;;;1943296;72;20243;-72
2021/09/25 09:02:11;;;;;;;;;;;18.40;99.90;;;;;;1946037;72;20262;-72
2021/09/25 09:04:42;;;;;;;;;;;18.50;99.90;;;;;;1944406;72;20156;-73
2021/09/25 09:07:13;;;;;;;;;;;18.60;99.90;;;;;;1942999;72;20234;-74
2021/09/25 09:09:44;;;;;;;;;;;18.50;99.90;;;;;;1944164;72;20197;-73
2021/09/25 09:12:11;;;;;;;;;;;18.60;99.90;;;;;;1937881;72;20211;-73
2021/09/25 09:14:47;;;;;;;;;;;18.60;99.90;;;;;;1945290;72;20449;-73
2021/09/25 09:17:15;;;;;;;;;;;18.70;99.90;;;;;;1944250;72;20200;-73
2021/09/25 09:19:42;;;;;;;;;;;18.80;99.90;;;;;;1940327;72;20159;-73
2021/09/25 09:22:09;;;;;;;;;;;18.80;99.90;;;;;;1945635;72;20125;-73
2021/09/25 09:24:49;;;;;;;;;;;18.80;99.90;;;;;;1939866;72;20175;-73
2021/09/25 09:27:18;;;;;;;;;;;18.90;99.90;;;;;;1942347;72;20264;-73
2021/09/25 09:29:45;;;;;;;;;;;19.00;99.90;;;;;;1945123;72;20490;-73
2021/09/25 09:32:12;;;;;;;;;;;19.00;99.90;;;;;;1947621;72;20216;-73
2021/09/25 09:34:39;;;;;;;;;;;19.10;99.90;;;;;;1944446;72;20177;-73
2021/09/25 09:37:17;;;;;;;;;;;19.30;99.90;;;;;;1945024;72;20167;-73
2021/09/25 09:39:45;;;;;;;;;;;19.20;99.90;;;;;;1944439;72;20511;-73
2021/09/25 09:42:11;;;;;;;;;;;19.30;99.90;;;;;;1941539;72;20504;-73
2021/09/25 09:44:38;;;;;;;;;;;19.40;99.90;;;;;;1942335;72;20224;-73
2021/09/25 09:47:07;;;;;;;;;;;19.40;99.90;;;;;;1944568;72;20253;-73
2021/09/25 09:49:36;;;;;;;;;;;19.40;99.90;;;;;;1946571;72;20782;-72
2021/09/25 09:52:04;;;;;;;;;;;19.30;99.90;;;;;;1944378;72;20217;-72
2021/09/25 09:54:32;;;;;;;;;;;19.30;99.90;;;;;;1944741;72;20464;-72
2021/09/25 09:57:00;;;;;;;;;;;19.30;99.90;;;;;;1943836;72;20211;-73
2021/09/25 09:59:27;;;;;;;;;;;19.30;99.90;;;;;;1944077;72;20261;-73
2021/09/25 10:01:54;;;;;;;;;;;19.30;99.90;;;;;;1945052;72;20413;-73
2021/09/25 10:04:21;;;;;;;;;;;19.30;99.90;;;;;;1946816;72;20139;-74
2021/09/25 10:06:48;;;;;;;;;;;19.30;99.90;;;;;;1941928;72;20140;-73
2021/09/25 10:09:17;;;;;;;;;;;19.20;99.90;;;;;;1937247;72;20223;-73
2021/09/25 10:11:46;;;;;;;;;;;19.20;99.90;;;;;;1943443;72;20502;-73
2021/09/25 10:14:14;;;;;;;;;;;19.20;99.90;;;;;;1942835;72;20218;-72
2021/09/25 10:16:41;;;;;;;;;;;19.30;99.90;;;;;;1940076;72;21087;-72
2021/09/25 10:19:08;;;;;;;;;;;19.30;99.90;;;;;;1941960;72;20260;-72
2021/09/25 10:21:36;;;;;;;;;;;19.30;99.90;;;;;;1943784;72;20171;-76
2021/09/25 10:24:07;;;;;;;;;;;19.30;99.90;;;;;;1945939;72;20164;-75
2021/09/25 10:26:35;;;;;;;;;;;19.30;99.90;;;;;;1942695;72;20428;-74
2021/09/25 10:29:03;;;;;;;;;;;19.30;99.90;;;;;;1945401;72;20421;-75
2021/09/25 10:31:30;;;;;;;;;;;19.30;99.90;;;;;;1943777;72;20246;-72
2021/09/25 10:34:07;;;;;;;;;;;19.20;99.90;;;;;;1944456;72;20159;-74
2021/09/25 10:36:41;;;;;;;;;;;19.20;99.90;;;;;;1935747;72;20163;-69
2021/09/25 10:39:16;;;;;;;;;;;19.30;99.90;;;;;;1944068;72;20392;-69
2021/09/25 10:41:43;;;;;;;;;;;19.30;99.90;;;;;;1941118;72;20128;-68
2021/09/25 10:44:28;;;;;;;;;;;19.40;99.90;;;;;;1940295;72;20262;-69
2021/09/25 10:47:13;;;;;;;;;;;19.50;99.90;;;;;;1937537;72;20191;-69
2021/09/25 10:49:41;;;;;;;;;;;19.60;99.90;;;;;;1944781;72;20175;-69
2021/09/25 10:52:08;;;;;;;;;;;19.60;99.90;;;;;;1942042;72;20179;-68
2021/09/25 10:54:35;;;;;;;;;;;19.60;99.90;;;;;;1945230;72;20171;-69
2021/09/25 10:57:03;;;;;;;;;;;19.60;99.90;;;;;;1937481;73;20468;-69
2021/09/25 10:59:30;;;;;;;;;;;19.70;99.90;;;;;;1943765;72;20195;-69
2021/09/25 11:01:57;;;;;;;;;;;20.00;99.90;;;;;;1942513;72;20497;-69
2021/09/25 11:04:24;;;;;;;;;;;20.30;99.90;;;;;;1944567;72;20177;-69
2021/09/25 11:06:58;;;;;;;;;;;20.20;99.90;;;;;;1935884;72;20150;-69
2021/09/25 11:09:29;;;;;;;;;;;20.20;99.90;;;;;;1940712;72;20230;-69
2021/09/25 11:11:57;;;;;;;;;;;20.10;99.90;;;;;;1943492;72;20335;-69
2021/09/25 11:14:26;;;;;;;;;;;19.90;99.90;;;;;;1937388;72;20199;-69
2021/09/25 11:17:11;;;;;;;;;;;19.90;99.90;;;;;;1941908;72;20246;-69
2021/09/25 11:19:39;;;;;;;;;;;19.80;99.90;;;;;;1947429;72;20112;-69
2021/09/25 11:22:11;;;;;;;;;;;19.90;99.90;;;;;;1943944;72;20205;-74
2021/09/25 11:24:45;;;;;;;;;;;19.80;99.90;;;;;;1941877;72;20112;-70
2021/09/25 11:27:27;;;;;;;;;;;19.80;99.90;;;;;;1941482;72;20191;-76
2021/09/25 11:29:55;;;;;;;;;;;19.70;99.90;;;;;;1869725;75;20172;-70
2021/09/25 11:32:26;;;;;;;;;;;19.80;99.90;;;;;;1871688;75;20122;-71
2021/09/25 11:34:53;;;;;;;;;;;19.80;99.90;;;;;;1857993;76;20659;-71
2021/09/25 11:37:20;;;;;;;;;;;19.80;99.90;;;;;;1944503;72;20124;-71
2021/09/25 11:39:48;;;;;;;;;;;19.80;99.90;;;;;;1945956;72;20223;-71
2021/09/25 11:42:22;;;;;;;;;;;19.80;99.90;;;;;;1945400;72;20232;-71
2021/09/25 11:45:00;;;;;;;;;;;19.80;99.90;;;;;;1948847;72;20170;-71
2021/09/25 11:47:29;;;;;;;;;;;19.80;99.90;;;;;;1946779;73;20167;-71
2021/09/25 11:49:57;;;;;;;;;;;19.80;99.90;;;;;;1947585;72;20476;-71
2021/09/25 11:52:24;;;;;;;;;;;19.80;99.90;;;;;;1946649;72;20171;-71
2021/09/25 11:54:52;;;;;;;;;;;19.70;99.90;;;;;;1946123;72;20163;-71
2021/09/25 11:57:20;;;;;;;;;;;19.80;99.90;;;;;;1946930;72;20113;-71
2021/09/25 11:59:47;;;;;;;;;;;19.80;99.90;;;;;;1946065;72;20123;-71
2021/09/25 12:02:32;;;;;;;;;;;19.70;99.90;;;;;;1945235;72;20186;-71
2021/09/25 12:04:59;;;;;;;;;;;19.70;99.90;;;;;;1945896;72;20370;-70
2021/09/25 12:07:27;;;;;;;;;;;19.70;99.90;;;;;;1943150;72;20159;-70
2021/09/25 12:09:54;;;;;;;;;;;19.70;99.90;;;;;;1940979;72;20429;-70
2021/09/25 12:12:22;;;;;;;;;;;19.70;99.90;;;;;;1946183;72;20150;-70
2021/09/25 12:14:49;;;;;;;;;;;19.70;99.90;;;;;;1942381;72;20104;-70
2021/09/25 12:17:16;;;;;;;;;;;19.70;99.90;;;;;;1944193;72;20177;-70
2021/09/25 12:19:46;;;;;;;;;;;19.70;99.90;;;;;;1947060;72;20151;-70
2021/09/25 12:22:28;;;;;;;;;;;19.70;99.90;;;;;;1946382;72;21044;-70
2021/09/25 12:24:54;;;;;;;;;;;19.60;99.90;;;;;;1944976;72;20214;-70
2021/09/25 12:27:28;;;;;;;;;;;19.60;99.90;;;;;;1947302;73;20124;-70
2021/09/25 12:29:54;;;;;;;;;;;19.70;99.90;;;;;;1943416;72;20372;-70
2021/09/25 12:32:22;;;;;;;;;;;19.60;99.90;;;;;;1945471;72;20185;-70
2021/09/25 12:34:49;;;;;;;;;;;19.60;99.90;;;;;;1946379;72;20175;-70
2021/09/25 12:37:17;;;;;;;;;;;19.60;99.90;;;;;;1944908;72;20202;-70
2021/09/25 12:39:49;;;;;;;;;;;19.60;99.90;;;;;;1945627;72;20162;-70
2021/09/25 12:42:14;;;;;;;;;;;19.60;99.90;;;;;;1941274;73;20205;-70
2021/09/25 12:44:42;;;;;;;;;;;19.60;99.90;;;;;;1944039;72;20112;-70
2021/09/25 12:47:09;;;;;;;;;;;19.60;99.90;;;;;;1946408;72;20159;-70
2021/09/25 12:49:36;;;;;;;;;;;19.60;99.90;;;;;;1947256;72;20507;-70
2021/09/25 12:52:11;;;;;;;;;;;19.60;99.90;;;;;;1947071;72;20441;-70
2021/09/25 12:54:39;;;;;;;;;;;19.60;99.90;;;;;;1947140;72;20116;-70
2021/09/25 12:57:09;;;;;;;;;;;19.60;99.90;;;;;;1946210;72;20252;-70
2021/09/25 12:59:40;;;;;;;;;;;19.60;99.90;;;;;;1946149;72;20187;-70
2021/09/25 13:02:09;;;;;;;;;;;19.60;99.90;;;;;;1945510;72;20205;-70
2021/09/25 13:04:40;;;;;;;;;;;19.60;99.90;;;;;;1946434;72;20189;-70
2021/09/25 13:07:07;;;;;;;;;;;19.50;99.90;;;;;;1943592;72;20182;-69
2021/09/25 13:09:44;;;;;;;;;;;19.50;99.90;;;;;;1946875;72;20199;-70
2021/09/25 13:12:15;;;;;;;;;;;19.50;99.90;;;;;;1946165;72;20298;-70
2021/09/25 13:14:43;;;;;;;;;;;19.50;99.90;;;;;;1943970;72;20151;-70
2021/09/25 13:17:10;;;;;;;;;;;19.50;99.90;;;;;;1945872;73;20202;-70
2021/09/25 13:19:37;;;;;;;;;;;19.50;99.90;;;;;;1949497;72;20182;-70
2021/09/25 13:22:05;;;;;;;;;;;19.50;99.90;;;;;;1943712;72;20218;-70
2021/09/25 13:24:32;;;;;;;;;;;19.50;99.90;;;;;;1946490;72;20197;-70
2021/09/25 13:26:59;;;;;;;;;;;19.50;99.90;;;;;;1944971;72;20260;-70
2021/09/25 13:29:26;;;;;;;;;;;19.50;99.90;;;;;;1942495;72;20212;-70
2021/09/25 13:31:53;;;;;;;;;;;19.50;99.90;;;;;;1944353;72;20320;-70
2021/09/25 13:34:20;;;;;;;;;;;19.60;99.90;;;;;;1946283;72;20158;-70
2021/09/25 13:36:48;;;;;;;;;;;19.60;99.90;;;;;;1944779;72;20305;-70
2021/09/25 13:39:15;;;;;;;;;;;19.60;99.90;;;;;;1945747;72;20182;-70
2021/09/25 13:41:42;;;;;;;;;;;19.60;99.90;;;;;;1940576;72;20120;-70
2021/09/25 13:44:09;;;;;;;;;;;19.60;99.90;;;;;;1946026;72;20303;-70
2021/09/25 13:46:36;;;;;;;;;;;19.60;99.90;;;;;;1946088;72;20205;-70
2021/09/25 13:49:03;;;;;;;;;;;19.60;99.90;;;;;;1946220;73;20178;-70
2021/09/25 13:51:29;;;;;;;;;;;19.60;99.90;;;;;;1946262;73;20156;-70
2021/09/25 13:53:57;;;;;;;;;;;19.60;99.90;;;;;;1945962;72;20413;-70
2021/09/25 13:56:24;;;;;;;;;;;19.60;99.90;;;;;;1946813;72;20171;-70
2021/09/25 13:58:51;;;;;;;;;;;19.60;99.90;;;;;;1942735;72;20382;-70
2021/09/25 14:01:17;;;;;;;;;;;19.60;99.90;;;;;;1945567;72;20245;-70
2021/09/25 14:03:44;;;;;;;;;;;19.60;99.90;;;;;;1945974;72;20465;-70
2021/09/25 14:06:12;;;;;;;;;;;19.60;99.90;;;;;;1946616;72;20128;-70
2021/09/25 14:08:41;;;;;;;;;;;19.60;99.90;;;;;;1945843;72;20181;-70
2021/09/25 14:11:08;;;;;;;;;;;19.60;99.90;;;;;;1945543;72;20202;-70
2021/09/25 14:13:38;;;;;;;;;;;19.60;99.90;;;;;;1945165;72;20469;-70
2021/09/25 14:16:09;;;;;;;;;;;19.60;99.90;;;;;;1946218;72;20632;-70
2021/09/25 14:18:41;;;;;;;;;;;19.70;99.90;;;;;;1945849;72;20255;-71